sensor_id;sensor_type;location;lat;lon;timestamp;P1;durP1;ratioP1;P2;durP2;ratioP2
12925;SDS011;6529;50.566;9.774;2023-02-12T00:00:59;36.63;;;17.80;;
12925;SDS011;6529;50.566;9.774;2023-02-12T00:03:25;36.70;;;18.17;;
12925;SDS011;6529;50.566;9.774;2023-02-12T00:05:51;34.67;;;17.03;;
12925;SDS011;6529;50.566;9.774;2023-02-12T00:08:16;34.60;;;16.97;;
12925;SDS011;6529;50.566;9.774;2023-02-12T00:10:42;34.80;;;17.00;;
12925;SDS011;6529;50.566;9.774;2023-02-12T00:13:11;34.43;;;16.87;;
12925;SDS011;6529;50.566;9.774;2023-02-12T00:15:39;30.03;;;16.00;;
12925;SDS011;6529;50.566;9.774;2023-02-12T00:18:05;33.83;;;16.43;;
12925;SDS011;6529;50.566;9.774;2023-02-12T00:20:31;32.57;;;16.33;;
12925;SDS011;6529;50.566;9.774;2023-02-12T00:22:56;31.40;;;17.30;;
12925;SDS011;6529;50.566;9.774;2023-02-12T00:25:22;33.07;;;16.43;;
12925;SDS011;6529;50.566;9.774;2023-02-12T00:27:48;30.37;;;16.10;;
12925;SDS011;6529;50.566;9.774;2023-02-12T00:30:13;34.67;;;16.17;;
12925;SDS011;6529;50.566;9.774;2023-02-12T00:32:39;31.77;;;15.70;;
12925;SDS011;6529;50.566;9.774;2023-02-12T00:35:05;31.57;;;16.07;;
12925;SDS011;6529;50.566;9.774;2023-02-12T00:37:31;32.60;;;16.73;;
12925;SDS011;6529;50.566;9.774;2023-02-12T00:39:56;29.63;;;14.60;;
12925;SDS011;6529;50.566;9.774;2023-02-12T00:42:22;28.73;;;15.63;;
12925;SDS011;6529;50.566;9.774;2023-02-12T00:44:47;28.63;;;15.60;;
12925;SDS011;6529;50.566;9.774;2023-02-12T00:47:13;29.23;;;15.23;;
12925;SDS011;6529;50.566;9.774;2023-02-12T00:49:40;29.70;;;15.23;;
12925;SDS011;6529;50.566;9.774;2023-02-12T00:52:06;31.13;;;15.60;;
12925;SDS011;6529;50.566;9.774;2023-02-12T00:54:32;28.03;;;14.50;;
12925;SDS011;6529;50.566;9.774;2023-02-12T00:56:58;27.03;;;14.23;;
12925;SDS011;6529;50.566;9.774;2023-02-12T00:59:24;25.67;;;13.97;;
12925;SDS011;6529;50.566;9.774;2023-02-12T01:01:51;26.37;;;14.33;;
12925;SDS011;6529;50.566;9.774;2023-02-12T01:04:18;27.50;;;14.60;;
12925;SDS011;6529;50.566;9.774;2023-02-12T01:06:44;30.23;;;14.47;;
12925;SDS011;6529;50.566;9.774;2023-02-12T01:09:10;27.43;;;14.07;;
12925;SDS011;6529;50.566;9.774;2023-02-12T01:11:36;25.77;;;13.80;;
12925;SDS011;6529;50.566;9.774;2023-02-12T01:14:02;27.83;;;14.53;;
12925;SDS011;6529;50.566;9.774;2023-02-12T01:16:28;28.17;;;14.10;;
12925;SDS011;6529;50.566;9.774;2023-02-12T01:18:55;28.73;;;14.90;;
12925;SDS011;6529;50.566;9.774;2023-02-12T01:21:30;28.03;;;13.83;;
12925;SDS011;6529;50.566;9.774;2023-02-12T01:23:58;26.40;;;13.17;;
12925;SDS011;6529;50.566;9.774;2023-02-12T01:26:24;27.00;;;13.70;;
12925;SDS011;6529;50.566;9.774;2023-02-12T01:28:52;27.03;;;13.77;;
12925;SDS011;6529;50.566;9.774;2023-02-12T01:31:20;26.23;;;14.20;;
12925;SDS011;6529;50.566;9.774;2023-02-12T01:33:51;26.83;;;14.23;;
12925;SDS011;6529;50.566;9.774;2023-02-12T01:36:18;24.47;;;12.70;;
12925;SDS011;6529;50.566;9.774;2023-02-12T01:38:44;25.67;;;13.53;;
12925;SDS011;6529;50.566;9.774;2023-02-12T01:41:11;24.43;;;12.93;;
12925;SDS011;6529;50.566;9.774;2023-02-12T01:44:04;25.90;;;13.13;;
12925;SDS011;6529;50.566;9.774;2023-02-12T01:46:47;24.87;;;13.27;;
12925;SDS011;6529;50.566;9.774;2023-02-12T01:49:22;26.53;;;13.30;;
12925;SDS011;6529;50.566;9.774;2023-02-12T01:52:26;26.47;;;13.77;;
12925;SDS011;6529;50.566;9.774;2023-02-12T01:54:44;26.80;;;13.73;;
12925;SDS011;6529;50.566;9.774;2023-02-12T01:57:10;24.50;;;12.67;;
12925;SDS011;6529;50.566;9.774;2023-02-12T01:59:38;23.93;;;13.50;;
12925;SDS011;6529;50.566;9.774;2023-02-12T02:02:05;24.93;;;13.53;;
12925;SDS011;6529;50.566;9.774;2023-02-12T02:04:32;25.27;;;13.40;;
12925;SDS011;6529;50.566;9.774;2023-02-12T02:07:04;27.27;;;12.93;;
12925;SDS011;6529;50.566;9.774;2023-02-12T02:09:30;26.63;;;13.63;;
12925;SDS011;6529;50.566;9.774;2023-02-12T02:11:59;25.87;;;13.23;;
12925;SDS011;6529;50.566;9.774;2023-02-12T02:14:44;27.20;;;13.67;;
12925;SDS011;6529;50.566;9.774;2023-02-12T02:28:11;22.73;;;12.33;;
12925;SDS011;6529;50.566;9.774;2023-02-12T02:33:36;22.77;;;11.47;;
12925;SDS011;6529;50.566;9.774;2023-02-12T02:36:40;25.33;;;12.43;;
12925;SDS011;6529;50.566;9.774;2023-02-12T02:42:18;19.23;;;10.63;;
12925;SDS011;6529;50.566;9.774;2023-02-12T02:44:58;20.40;;;10.83;;
12925;SDS011;6529;50.566;9.774;2023-02-12T02:47:43;18.87;;;10.97;;
12925;SDS011;6529;50.566;9.774;2023-02-12T02:50:14;19.07;;;10.70;;
12925;SDS011;6529;50.566;9.774;2023-02-12T02:52:58;20.90;;;10.87;;
12925;SDS011;6529;50.566;9.774;2023-02-12T02:55:26;21.60;;;11.37;;
12925;SDS011;6529;50.566;9.774;2023-02-12T02:57:57;23.00;;;12.00;;
12925;SDS011;6529;50.566;9.774;2023-02-12T03:00:31;25.00;;;12.67;;
12925;SDS011;6529;50.566;9.774;2023-02-12T03:03:04;24.47;;;12.27;;
12925;SDS011;6529;50.566;9.774;2023-02-12T03:05:39;25.63;;;11.57;;
12925;SDS011;6529;50.566;9.774;2023-02-12T03:08:22;25.63;;;11.70;;
12925;SDS011;6529;50.566;9.774;2023-02-12T03:10:53;21.57;;;11.13;;
12925;SDS011;6529;50.566;9.774;2023-02-12T03:13:28;23.93;;;12.33;;
12925;SDS011;6529;50.566;9.774;2023-02-12T03:16:03;23.87;;;12.40;;
12925;SDS011;6529;50.566;9.774;2023-02-12T03:18:38;25.63;;;13.40;;
12925;SDS011;6529;50.566;9.774;2023-02-12T03:21:09;22.17;;;11.97;;
12925;SDS011;6529;50.566;9.774;2023-02-12T03:26:20;21.37;;;11.33;;
12925;SDS011;6529;50.566;9.774;2023-02-12T03:28:49;24.47;;;11.87;;
12925;SDS011;6529;50.566;9.774;2023-02-12T03:31:22;24.80;;;11.13;;
12925;SDS011;6529;50.566;9.774;2023-02-12T03:34:29;25.33;;;11.93;;
12925;SDS011;6529;50.566;9.774;2023-02-12T03:37:09;23.23;;;11.87;;
12925;SDS011;6529;50.566;9.774;2023-02-12T03:44:50;21.97;;;11.57;;
12925;SDS011;6529;50.566;9.774;2023-02-12T03:47:24;24.37;;;12.30;;
12925;SDS011;6529;50.566;9.774;2023-02-12T03:50:29;22.10;;;11.70;;
12925;SDS011;6529;50.566;9.774;2023-02-12T03:52:51;22.47;;;12.73;;
12925;SDS011;6529;50.566;9.774;2023-02-12T03:55:17;22.17;;;12.00;;
12925;SDS011;6529;50.566;9.774;2023-02-12T03:57:44;24.43;;;12.43;;
12925;SDS011;6529;50.566;9.774;2023-02-12T04:00:19;24.43;;;12.83;;
12925;SDS011;6529;50.566;9.774;2023-02-12T04:02:46;30.53;;;15.80;;
12925;SDS011;6529;50.566;9.774;2023-02-12T04:05:17;28.60;;;14.17;;
12925;SDS011;6529;50.566;9.774;2023-02-12T04:07:44;30.43;;;15.10;;
12925;SDS011;6529;50.566;9.774;2023-02-12T04:10:10;27.90;;;15.03;;
12925;SDS011;6529;50.566;9.774;2023-02-12T04:20:53;27.40;;;14.47;;
12925;SDS011;6529;50.566;9.774;2023-02-12T04:26:33;30.47;;;15.30;;
12925;SDS011;6529;50.566;9.774;2023-02-12T04:29:24;25.63;;;13.60;;
12925;SDS011;6529;50.566;9.774;2023-02-12T04:37:10;25.40;;;14.40;;
12925;SDS011;6529;50.566;9.774;2023-02-12T04:39:54;25.93;;;14.87;;
12925;SDS011;6529;50.566;9.774;2023-02-12T04:42:22;27.70;;;14.40;;
12925;SDS011;6529;50.566;9.774;2023-02-12T04:44:47;28.97;;;14.37;;
12925;SDS011;6529;50.566;9.774;2023-02-12T04:47:14;31.87;;;14.87;;
12925;SDS011;6529;50.566;9.774;2023-02-12T04:49:40;29.70;;;15.23;;
12925;SDS011;6529;50.566;9.774;2023-02-12T04:52:06;29.23;;;15.00;;
12925;SDS011;6529;50.566;9.774;2023-02-12T04:54:32;29.13;;;16.13;;
12925;SDS011;6529;50.566;9.774;2023-02-12T04:56:58;30.27;;;15.83;;
12925;SDS011;6529;50.566;9.774;2023-02-12T04:59:23;30.30;;;15.80;;
12925;SDS011;6529;50.566;9.774;2023-02-12T05:01:49;29.30;;;14.97;;
12925;SDS011;6529;50.566;9.774;2023-02-12T05:04:15;28.00;;;14.13;;
12925;SDS011;6529;50.566;9.774;2023-02-12T05:06:42;29.17;;;14.17;;
12925;SDS011;6529;50.566;9.774;2023-02-12T05:09:09;27.30;;;14.43;;
12925;SDS011;6529;50.566;9.774;2023-02-12T05:11:41;29.87;;;14.17;;
12925;SDS011;6529;50.566;9.774;2023-02-12T05:14:07;29.10;;;14.67;;
12925;SDS011;6529;50.566;9.774;2023-02-12T05:16:32;29.07;;;14.17;;
12925;SDS011;6529;50.566;9.774;2023-02-12T05:18:58;27.70;;;13.73;;
12925;SDS011;6529;50.566;9.774;2023-02-12T05:21:23;24.53;;;13.63;;
12925;SDS011;6529;50.566;9.774;2023-02-12T05:23:49;26.13;;;14.03;;
12925;SDS011;6529;50.566;9.774;2023-02-12T05:26:16;26.93;;;13.33;;
12925;SDS011;6529;50.566;9.774;2023-02-12T05:28:43;22.47;;;12.10;;
12925;SDS011;6529;50.566;9.774;2023-02-12T05:31:10;27.43;;;13.17;;
12925;SDS011;6529;50.566;9.774;2023-02-12T05:33:38;25.23;;;13.43;;
12925;SDS011;6529;50.566;9.774;2023-02-12T05:36:07;24.60;;;13.13;;
12925;SDS011;6529;50.566;9.774;2023-02-12T05:38:34;24.00;;;12.27;;
12925;SDS011;6529;50.566;9.774;2023-02-12T05:41:09;24.07;;;11.97;;
12925;SDS011;6529;50.566;9.774;2023-02-12T05:43:37;21.80;;;11.27;;
12925;SDS011;6529;50.566;9.774;2023-02-12T05:46:03;25.03;;;12.53;;
12925;SDS011;6529;50.566;9.774;2023-02-12T05:48:30;24.37;;;11.73;;
12925;SDS011;6529;50.566;9.774;2023-02-12T05:51:13;24.43;;;12.40;;
12925;SDS011;6529;50.566;9.774;2023-02-12T05:53:41;23.80;;;12.33;;
12925;SDS011;6529;50.566;9.774;2023-02-12T05:56:08;26.67;;;12.00;;
12925;SDS011;6529;50.566;9.774;2023-02-12T05:58:35;22.53;;;11.73;;
12925;SDS011;6529;50.566;9.774;2023-02-12T06:01:01;25.33;;;12.17;;
12925;SDS011;6529;50.566;9.774;2023-02-12T06:03:27;24.43;;;12.63;;
12925;SDS011;6529;50.566;9.774;2023-02-12T06:05:52;23.50;;;12.63;;
12925;SDS011;6529;50.566;9.774;2023-02-12T06:08:18;22.70;;;12.03;;
12925;SDS011;6529;50.566;9.774;2023-02-12T06:10:43;26.57;;;12.57;;
12925;SDS011;6529;50.566;9.774;2023-02-12T06:13:09;26.50;;;12.63;;
12925;SDS011;6529;50.566;9.774;2023-02-12T06:15:35;25.13;;;12.60;;
12925;SDS011;6529;50.566;9.774;2023-02-12T06:18:01;24.37;;;12.73;;
12925;SDS011;6529;50.566;9.774;2023-02-12T06:20:27;23.23;;;12.87;;
12925;SDS011;6529;50.566;9.774;2023-02-12T06:22:53;22.57;;;11.73;;
12925;SDS011;6529;50.566;9.774;2023-02-12T06:25:19;25.83;;;12.53;;
12925;SDS011;6529;50.566;9.774;2023-02-12T06:27:44;27.43;;;12.50;;
12925;SDS011;6529;50.566;9.774;2023-02-12T06:30:10;23.83;;;12.03;;
12925;SDS011;6529;50.566;9.774;2023-02-12T06:32:36;27.33;;;12.97;;
12925;SDS011;6529;50.566;9.774;2023-02-12T06:35:02;27.60;;;13.07;;
12925;SDS011;6529;50.566;9.774;2023-02-12T06:37:27;25.07;;;13.27;;
12925;SDS011;6529;50.566;9.774;2023-02-12T06:39:53;17.13;;;9.40;;
12925;SDS011;6529;50.566;9.774;2023-02-12T06:42:19;26.03;;;12.50;;
12925;SDS011;6529;50.566;9.774;2023-02-12T06:44:44;20.10;;;10.00;;
12925;SDS011;6529;50.566;9.774;2023-02-12T06:47:10;17.47;;;9.90;;
12925;SDS011;6529;50.566;9.774;2023-02-12T06:49:36;18.43;;;10.23;;
12925;SDS011;6529;50.566;9.774;2023-02-12T06:52:01;17.77;;;10.17;;
12925;SDS011;6529;50.566;9.774;2023-02-12T06:54:27;21.53;;;11.13;;
12925;SDS011;6529;50.566;9.774;2023-02-12T06:56:52;21.90;;;11.70;;
12925;SDS011;6529;50.566;9.774;2023-02-12T06:59:18;19.80;;;11.47;;
12925;SDS011;6529;50.566;9.774;2023-02-12T07:01:45;20.33;;;11.47;;
12925;SDS011;6529;50.566;9.774;2023-02-12T07:04:11;23.43;;;12.97;;
12925;SDS011;6529;50.566;9.774;2023-02-12T07:06:37;21.47;;;12.90;;
12925;SDS011;6529;50.566;9.774;2023-02-12T07:09:03;25.23;;;13.10;;
12925;SDS011;6529;50.566;9.774;2023-02-12T07:11:30;26.93;;;13.87;;
12925;SDS011;6529;50.566;9.774;2023-02-12T07:13:57;25.60;;;12.67;;
12925;SDS011;6529;50.566;9.774;2023-02-12T07:16:23;25.50;;;12.93;;
12925;SDS011;6529;50.566;9.774;2023-02-12T07:18:49;28.10;;;13.83;;
12925;SDS011;6529;50.566;9.774;2023-02-12T07:21:15;26.40;;;13.40;;
12925;SDS011;6529;50.566;9.774;2023-02-12T07:23:41;27.43;;;12.87;;
12925;SDS011;6529;50.566;9.774;2023-02-12T07:26:12;27.67;;;13.27;;
12925;SDS011;6529;50.566;9.774;2023-02-12T07:28:38;24.47;;;13.03;;
12925;SDS011;6529;50.566;9.774;2023-02-12T07:31:05;25.60;;;13.00;;
12925;SDS011;6529;50.566;9.774;2023-02-12T07:33:32;26.23;;;13.00;;
12925;SDS011;6529;50.566;9.774;2023-02-12T07:36:02;26.03;;;12.53;;
12925;SDS011;6529;50.566;9.774;2023-02-12T07:38:29;27.87;;;13.40;;
12925;SDS011;6529;50.566;9.774;2023-02-12T07:40:55;28.37;;;12.63;;
12925;SDS011;6529;50.566;9.774;2023-02-12T07:43:29;28.73;;;13.57;;
12925;SDS011;6529;50.566;9.774;2023-02-12T07:45:55;29.30;;;14.30;;
12925;SDS011;6529;50.566;9.774;2023-02-12T07:48:20;29.63;;;13.37;;
12925;SDS011;6529;50.566;9.774;2023-02-12T07:50:46;30.60;;;14.33;;
12925;SDS011;6529;50.566;9.774;2023-02-12T07:53:11;32.13;;;13.90;;
12925;SDS011;6529;50.566;9.774;2023-02-12T07:55:37;28.47;;;13.33;;
12925;SDS011;6529;50.566;9.774;2023-02-12T07:58:02;32.60;;;14.23;;
12925;SDS011;6529;50.566;9.774;2023-02-12T08:00:28;26.30;;;13.37;;
12925;SDS011;6529;50.566;9.774;2023-02-12T08:02:53;28.73;;;13.23;;
12925;SDS011;6529;50.566;9.774;2023-02-12T08:05:19;31.23;;;14.63;;
12925;SDS011;6529;50.566;9.774;2023-02-12T08:07:44;29.03;;;14.17;;
12925;SDS011;6529;50.566;9.774;2023-02-12T08:10:10;27.20;;;13.53;;
12925;SDS011;6529;50.566;9.774;2023-02-12T08:12:36;29.30;;;13.70;;
12925;SDS011;6529;50.566;9.774;2023-02-12T08:15:01;30.23;;;14.93;;
12925;SDS011;6529;50.566;9.774;2023-02-12T08:17:27;28.37;;;13.83;;
12925;SDS011;6529;50.566;9.774;2023-02-12T08:19:53;33.93;;;15.53;;
12925;SDS011;6529;50.566;9.774;2023-02-12T08:22:18;30.37;;;13.93;;
12925;SDS011;6529;50.566;9.774;2023-02-12T08:24:44;32.07;;;15.17;;
12925;SDS011;6529;50.566;9.774;2023-02-12T08:27:09;31.97;;;14.87;;
12925;SDS011;6529;50.566;9.774;2023-02-12T08:29:35;30.20;;;15.47;;
12925;SDS011;6529;50.566;9.774;2023-02-12T08:32:01;33.47;;;15.40;;
12925;SDS011;6529;50.566;9.774;2023-02-12T08:34:28;31.87;;;15.03;;
12925;SDS011;6529;50.566;9.774;2023-02-12T08:36:55;30.73;;;15.03;;
12925;SDS011;6529;50.566;9.774;2023-02-12T08:39:22;32.10;;;15.37;;
12925;SDS011;6529;50.566;9.774;2023-02-12T08:41:49;34.53;;;16.03;;
12925;SDS011;6529;50.566;9.774;2023-02-12T08:44:16;37.23;;;17.30;;
12925;SDS011;6529;50.566;9.774;2023-02-12T08:46:43;37.20;;;17.73;;
12925;SDS011;6529;50.566;9.774;2023-02-12T08:49:15;39.13;;;17.43;;
12925;SDS011;6529;50.566;9.774;2023-02-12T08:51:44;39.90;;;18.63;;
12925;SDS011;6529;50.566;9.774;2023-02-12T08:54:13;41.67;;;18.40;;
12925;SDS011;6529;50.566;9.774;2023-02-12T08:56:40;42.93;;;19.30;;
12925;SDS011;6529;50.566;9.774;2023-02-12T08:59:06;38.00;;;19.10;;
12925;SDS011;6529;50.566;9.774;2023-02-12T09:01:33;42.77;;;19.27;;
12925;SDS011;6529;50.566;9.774;2023-02-12T09:04:03;45.13;;;19.07;;
12925;SDS011;6529;50.566;9.774;2023-02-12T09:06:30;47.43;;;20.53;;
12925;SDS011;6529;50.566;9.774;2023-02-12T09:08:58;44.93;;;19.83;;
12925;SDS011;6529;50.566;9.774;2023-02-12T09:11:25;40.67;;;18.40;;
12925;SDS011;6529;50.566;9.774;2023-02-12T09:13:54;52.53;;;19.87;;
12925;SDS011;6529;50.566;9.774;2023-02-12T09:16:28;40.77;;;18.13;;
12925;SDS011;6529;50.566;9.774;2023-02-12T09:18:55;44.43;;;18.17;;
12925;SDS011;6529;50.566;9.774;2023-02-12T09:21:21;46.97;;;17.90;;
12925;SDS011;6529;50.566;9.774;2023-02-12T09:23:47;42.43;;;17.40;;
12925;SDS011;6529;50.566;9.774;2023-02-12T09:26:14;49.27;;;21.13;;
12925;SDS011;6529;50.566;9.774;2023-02-12T09:28:44;44.60;;;18.60;;
12925;SDS011;6529;50.566;9.774;2023-02-12T09:31:11;41.53;;;17.20;;
12925;SDS011;6529;50.566;9.774;2023-02-12T09:33:50;41.10;;;17.90;;
12925;SDS011;6529;50.566;9.774;2023-02-12T09:36:16;47.00;;;19.17;;
12925;SDS011;6529;50.566;9.774;2023-02-12T09:38:42;47.07;;;19.40;;
12925;SDS011;6529;50.566;9.774;2023-02-12T09:44:00;55.27;;;20.90;;
12925;SDS011;6529;50.566;9.774;2023-02-12T09:46:56;49.60;;;20.27;;
12925;SDS011;6529;50.566;9.774;2023-02-12T09:52:48;50.77;;;19.43;;
12925;SDS011;6529;50.566;9.774;2023-02-12T09:55:15;45.47;;;18.17;;
12925;SDS011;6529;50.566;9.774;2023-02-12T09:57:43;47.50;;;19.17;;
12925;SDS011;6529;50.566;9.774;2023-02-12T10:00:12;53.97;;;19.03;;
12925;SDS011;6529;50.566;9.774;2023-02-12T10:02:42;44.70;;;17.43;;
12925;SDS011;6529;50.566;9.774;2023-02-12T10:05:14;47.50;;;18.50;;
12925;SDS011;6529;50.566;9.774;2023-02-12T10:08:01;47.33;;;18.63;;
12925;SDS011;6529;50.566;9.774;2023-02-12T10:14:04;45.23;;;16.97;;
12925;SDS011;6529;50.566;9.774;2023-02-12T10:27:39;44.33;;;17.63;;
12925;SDS011;6529;50.566;9.774;2023-02-12T10:30:23;42.93;;;16.77;;
12925;SDS011;6529;50.566;9.774;2023-02-12T10:32:59;37.57;;;15.43;;
12925;SDS011;6529;50.566;9.774;2023-02-12T10:35:31;43.37;;;17.13;;
12925;SDS011;6529;50.566;9.774;2023-02-12T10:38:12;41.47;;;15.90;;
12925;SDS011;6529;50.566;9.774;2023-02-12T10:40:49;40.33;;;16.57;;
12925;SDS011;6529;50.566;9.774;2023-02-12T10:43:14;37.73;;;16.07;;
12925;SDS011;6529;50.566;9.774;2023-02-12T10:45:41;39.23;;;16.13;;
12925;SDS011;6529;50.566;9.774;2023-02-12T10:48:18;35.03;;;16.10;;
12925;SDS011;6529;50.566;9.774;2023-02-12T10:53:43;37.37;;;16.30;;
12925;SDS011;6529;50.566;9.774;2023-02-12T10:56:19;38.30;;;16.07;;
12925;SDS011;6529;50.566;9.774;2023-02-12T11:01:35;38.40;;;14.80;;
12925;SDS011;6529;50.566;9.774;2023-02-12T11:04:19;39.77;;;16.13;;
12925;SDS011;6529;50.566;9.774;2023-02-12T11:09:33;36.90;;;15.93;;
12925;SDS011;6529;50.566;9.774;2023-02-12T11:12:23;31.63;;;14.53;;
12925;SDS011;6529;50.566;9.774;2023-02-12T11:14:51;34.63;;;14.83;;
12925;SDS011;6529;50.566;9.774;2023-02-12T11:17:32;26.10;;;12.93;;
12925;SDS011;6529;50.566;9.774;2023-02-12T11:25:19;28.43;;;13.50;;
12925;SDS011;6529;50.566;9.774;2023-02-12T11:30:30;30.87;;;14.20;;
12925;SDS011;6529;50.566;9.774;2023-02-12T11:35:54;76.87;;;37.63;;
12925;SDS011;6529;50.566;9.774;2023-02-12T11:38:24;35.87;;;17.47;;
12925;SDS011;6529;50.566;9.774;2023-02-12T11:44:10;24.63;;;12.60;;
12925;SDS011;6529;50.566;9.774;2023-02-12T11:46:37;23.80;;;12.17;;
12925;SDS011;6529;50.566;9.774;2023-02-12T11:49:12;23.80;;;12.07;;
12925;SDS011;6529;50.566;9.774;2023-02-12T11:51:45;23.93;;;12.07;;
12925;SDS011;6529;50.566;9.774;2023-02-12T11:54:16;23.53;;;11.63;;
12925;SDS011;6529;50.566;9.774;2023-02-12T11:56:48;20.97;;;10.53;;
12925;SDS011;6529;50.566;9.774;2023-02-12T11:59:33;19.03;;;9.53;;
12925;SDS011;6529;50.566;9.774;2023-02-12T12:02:15;16.77;;;9.27;;
12925;SDS011;6529;50.566;9.774;2023-02-12T12:04:46;16.10;;;9.00;;
12925;SDS011;6529;50.566;9.774;2023-02-12T12:07:17;18.97;;;10.10;;
12925;SDS011;6529;50.566;9.774;2023-02-12T12:09:49;20.03;;;10.50;;
12925;SDS011;6529;50.566;9.774;2023-02-12T12:15:02;15.30;;;9.17;;
12925;SDS011;6529;50.566;9.774;2023-02-12T12:17:55;8.23;;;5.07;;
12925;SDS011;6529;50.566;9.774;2023-02-12T12:20:51;7.93;;;4.77;;
12925;SDS011;6529;50.566;9.774;2023-02-12T12:26:12;8.60;;;5.00;;
12925;SDS011;6529;50.566;9.774;2023-02-12T12:31:42;11.63;;;6.40;;
12925;SDS011;6529;50.566;9.774;2023-02-12T12:34:11;11.20;;;5.83;;
12925;SDS011;6529;50.566;9.774;2023-02-12T12:36:47;9.17;;;5.53;;
12925;SDS011;6529;50.566;9.774;2023-02-12T12:39:41;11.03;;;6.17;;
12925;SDS011;6529;50.566;9.774;2023-02-12T12:47:34;10.37;;;5.50;;
12925;SDS011;6529;50.566;9.774;2023-02-12T12:50:08;10.47;;;5.97;;
12925;SDS011;6529;50.566;9.774;2023-02-12T12:58:17;7.47;;;4.50;;
12925;SDS011;6529;50.566;9.774;2023-02-12T13:01:00;6.23;;;4.00;;
12925;SDS011;6529;50.566;9.774;2023-02-12T13:11:43;7.83;;;4.80;;
12925;SDS011;6529;50.566;9.774;2023-02-12T13:14:24;8.20;;;4.57;;
12925;SDS011;6529;50.566;9.774;2023-02-12T13:22:43;9.77;;;5.40;;
12925;SDS011;6529;50.566;9.774;2023-02-12T13:27:50;9.80;;;6.13;;
12925;SDS011;6529;50.566;9.774;2023-02-12T13:30:18;9.13;;;5.00;;
12925;SDS011;6529;50.566;9.774;2023-02-12T13:33:08;9.43;;;5.50;;
12925;SDS011;6529;50.566;9.774;2023-02-12T13:35:36;9.07;;;5.83;;
12925;SDS011;6529;50.566;9.774;2023-02-12T13:38:06;9.53;;;5.13;;
12925;SDS011;6529;50.566;9.774;2023-02-12T13:40:33;22.20;;;11.33;;
12925;SDS011;6529;50.566;9.774;2023-02-12T13:53:48;10.03;;;6.00;;
12925;SDS011;6529;50.566;9.774;2023-02-12T13:58:57;8.07;;;5.00;;
12925;SDS011;6529;50.566;9.774;2023-02-12T14:01:41;8.07;;;5.40;;
12925;SDS011;6529;50.566;9.774;2023-02-12T14:04:26;9.07;;;5.30;;
12925;SDS011;6529;50.566;9.774;2023-02-12T14:06:54;8.93;;;5.40;;
12925;SDS011;6529;50.566;9.774;2023-02-12T14:09:26;10.53;;;5.40;;
12925;SDS011;6529;50.566;9.774;2023-02-12T14:11:59;9.93;;;5.80;;
12925;SDS011;6529;50.566;9.774;2023-02-12T14:14:49;10.07;;;6.33;;
12925;SDS011;6529;50.566;9.774;2023-02-12T14:20:04;8.43;;;5.10;;
12925;SDS011;6529;50.566;9.774;2023-02-12T14:24:56;9.20;;;5.10;;
12925;SDS011;6529;50.566;9.774;2023-02-12T14:27:28;7.53;;;4.60;;
12925;SDS011;6529;50.566;9.774;2023-02-12T14:37:52;7.80;;;4.90;;
12925;SDS011;6529;50.566;9.774;2023-02-12T14:51:16;8.70;;;4.93;;
12925;SDS011;6529;50.566;9.774;2023-02-12T14:53:47;9.07;;;4.93;;
12925;SDS011;6529;50.566;9.774;2023-02-12T14:56:17;7.80;;;4.73;;
12925;SDS011;6529;50.566;9.774;2023-02-12T14:58:45;8.07;;;5.23;;
12925;SDS011;6529;50.566;9.774;2023-02-12T15:01:12;8.93;;;5.73;;
12925;SDS011;6529;50.566;9.774;2023-02-12T15:03:48;8.73;;;5.70;;
12925;SDS011;6529;50.566;9.774;2023-02-12T15:06:19;7.97;;;5.00;;
12925;SDS011;6529;50.566;9.774;2023-02-12T15:08:49;8.27;;;5.20;;
12925;SDS011;6529;50.566;9.774;2023-02-12T15:24:43;12.53;;;5.30;;
12925;SDS011;6529;50.566;9.774;2023-02-12T15:27:10;7.17;;;4.73;;
12925;SDS011;6529;50.566;9.774;2023-02-12T15:32:28;8.23;;;4.97;;
12925;SDS011;6529;50.566;9.774;2023-02-12T15:35:02;9.83;;;5.20;;
12925;SDS011;6529;50.566;9.774;2023-02-12T15:37:29;8.60;;;5.20;;
12925;SDS011;6529;50.566;9.774;2023-02-12T15:39:56;8.37;;;5.07;;
12925;SDS011;6529;50.566;9.774;2023-02-12T15:42:31;8.73;;;5.40;;
12925;SDS011;6529;50.566;9.774;2023-02-12T15:47:38;7.70;;;4.57;;
12925;SDS011;6529;50.566;9.774;2023-02-12T15:50:05;7.60;;;4.90;;
12925;SDS011;6529;50.566;9.774;2023-02-12T15:52:36;8.20;;;5.00;;
12925;SDS011;6529;50.566;9.774;2023-02-12T15:55:05;9.23;;;5.20;;
12925;SDS011;6529;50.566;9.774;2023-02-12T15:57:38;8.13;;;4.77;;
12925;SDS011;6529;50.566;9.774;2023-02-12T16:00:08;6.97;;;4.43;;
12925;SDS011;6529;50.566;9.774;2023-02-12T16:02:47;7.20;;;4.80;;
12925;SDS011;6529;50.566;9.774;2023-02-12T16:05:16;7.60;;;4.93;;
12925;SDS011;6529;50.566;9.774;2023-02-12T16:07:42;7.53;;;4.97;;
12925;SDS011;6529;50.566;9.774;2023-02-12T16:10:13;7.70;;;4.77;;
12925;SDS011;6529;50.566;9.774;2023-02-12T16:12:40;7.93;;;4.70;;
12925;SDS011;6529;50.566;9.774;2023-02-12T16:15:06;8.50;;;4.73;;
12925;SDS011;6529;50.566;9.774;2023-02-12T16:17:47;9.67;;;5.77;;
12925;SDS011;6529;50.566;9.774;2023-02-12T16:22:44;8.47;;;5.40;;
12925;SDS011;6529;50.566;9.774;2023-02-12T16:25:15;7.30;;;4.70;;
12925;SDS011;6529;50.566;9.774;2023-02-12T16:27:55;9.63;;;6.17;;
12925;SDS011;6529;50.566;9.774;2023-02-12T16:32:54;7.13;;;4.27;;
12925;SDS011;6529;50.566;9.774;2023-02-12T16:35:25;7.63;;;4.57;;
12925;SDS011;6529;50.566;9.774;2023-02-12T16:37:56;7.73;;;4.80;;
12925;SDS011;6529;50.566;9.774;2023-02-12T16:40:39;7.23;;;4.10;;
12925;SDS011;6529;50.566;9.774;2023-02-12T16:43:21;7.20;;;4.73;;
12925;SDS011;6529;50.566;9.774;2023-02-12T16:45:48;6.80;;;4.40;;
12925;SDS011;6529;50.566;9.774;2023-02-12T16:48:18;6.37;;;4.47;;
12925;SDS011;6529;50.566;9.774;2023-02-12T16:50:55;6.40;;;4.50;;
12925;SDS011;6529;50.566;9.774;2023-02-12T16:55:54;7.97;;;4.93;;
12925;SDS011;6529;50.566;9.774;2023-02-12T16:58:20;8.23;;;4.60;;
12925;SDS011;6529;50.566;9.774;2023-02-12T17:00:46;6.80;;;4.60;;
12925;SDS011;6529;50.566;9.774;2023-02-12T17:03:12;6.80;;;4.70;;
12925;SDS011;6529;50.566;9.774;2023-02-12T17:05:39;8.33;;;5.57;;
12925;SDS011;6529;50.566;9.774;2023-02-12T17:08:13;9.30;;;5.93;;
12925;SDS011;6529;50.566;9.774;2023-02-12T17:10:46;12.03;;;6.87;;
12925;SDS011;6529;50.566;9.774;2023-02-12T17:13:12;8.53;;;7.07;;
12925;SDS011;6529;50.566;9.774;2023-02-12T17:15:40;7.60;;;5.37;;
12925;SDS011;6529;50.566;9.774;2023-02-12T17:18:18;7.87;;;5.10;;
12925;SDS011;6529;50.566;9.774;2023-02-12T17:20:45;8.13;;;5.00;;
12925;SDS011;6529;50.566;9.774;2023-02-12T17:23:15;8.70;;;6.20;;
12925;SDS011;6529;50.566;9.774;2023-02-12T17:25:41;9.23;;;6.37;;
12925;SDS011;6529;50.566;9.774;2023-02-12T17:28:06;7.43;;;5.33;;
12925;SDS011;6529;50.566;9.774;2023-02-12T17:30:33;7.43;;;4.83;;
12925;SDS011;6529;50.566;9.774;2023-02-12T17:32:58;7.93;;;5.40;;
12925;SDS011;6529;50.566;9.774;2023-02-12T17:35:24;7.20;;;5.40;;
12925;SDS011;6529;50.566;9.774;2023-02-12T17:37:50;6.57;;;4.27;;
12925;SDS011;6529;50.566;9.774;2023-02-12T17:40:16;7.63;;;5.10;;
12925;SDS011;6529;50.566;9.774;2023-02-12T17:42:41;7.83;;;5.30;;
12925;SDS011;6529;50.566;9.774;2023-02-12T17:45:07;8.27;;;5.20;;
12925;SDS011;6529;50.566;9.774;2023-02-12T17:47:33;8.50;;;5.00;;
12925;SDS011;6529;50.566;9.774;2023-02-12T17:50:04;9.83;;;5.73;;
12925;SDS011;6529;50.566;9.774;2023-02-12T17:52:32;9.43;;;6.17;;
12925;SDS011;6529;50.566;9.774;2023-02-12T17:54:57;9.10;;;6.07;;
12925;SDS011;6529;50.566;9.774;2023-02-12T17:57:23;8.33;;;5.40;;
12925;SDS011;6529;50.566;9.774;2023-02-12T17:59:48;9.63;;;7.30;;
12925;SDS011;6529;50.566;9.774;2023-02-12T18:02:14;9.33;;;6.27;;